sensor_id;sensor_type;location;lat;lon;timestamp;pressure;altitude;pressure_sealevel;temperature;humidity
50282;BME280;36176;51.506;10.272;2023-10-13T00:02:05;99281.78;;;15.04;100.00
50282;BME280;36176;51.506;10.272;2023-10-13T00:04:53;99289.78;;;15.04;100.00
50282;BME280;36176;51.506;10.272;2023-10-13T00:07:40;99293.53;;;15.01;100.00
50282;BME280;36176;51.506;10.272;2023-10-13T00:10:29;99284.66;;;15.01;100.00
50282;BME280;36176;51.506;10.272;2023-10-13T00:13:16;99284.31;;;14.93;100.00
50282;BME280;36176;51.506;10.272;2023-10-13T00:16:04;99286.47;;;14.87;100.00
50282;BME280;36176;51.506;10.272;2023-10-13T00:18:51;99283.78;;;14.87;100.00
50282;BME280;36176;51.506;10.272;2023-10-13T00:21:39;99278.69;;;14.84;100.00
50282;BME280;36176;51.506;10.272;2023-10-13T00:24:26;99274.38;;;14.82;100.00
50282;BME280;36176;51.506;10.272;2023-10-13T00:27:20;99278.00;;;14.81;100.00
50282;BME280;36176;51.506;10.272;2023-10-13T00:30:08;99272.13;;;14.76;100.00
50282;BME280;36176;51.506;10.272;2023-10-13T00:32:57;99272.44;;;14.71;100.00
50282;BME280;36176;51.506;10.272;2023-10-13T00:35:44;99273.59;;;14.67;100.00
50282;BME280;36176;51.506;10.272;2023-10-13T00:38:32;99271.06;;;14.65;100.00
50282;BME280;36176;51.506;10.272;2023-10-13T00:41:19;99272.00;;;14.64;100.00
50282;BME280;36176;51.506;10.272;2023-10-13T00:44:07;99272.22;;;14.61;100.00
50282;BME280;36176;51.506;10.272;2023-10-13T00:46:55;99272.44;;;14.58;100.00
50282;BME280;36176;51.506;10.272;2023-10-13T00:49:44;99264.78;;;14.52;100.00
50282;BME280;36176;51.506;10.272;2023-10-13T00:52:34;99258.44;;;14.55;100.00
50282;BME280;36176;51.506;10.272;2023-10-13T00:55:23;99262.69;;;14.57;100.00
50282;BME280;36176;51.506;10.272;2023-10-13T00:58:11;99267.94;;;14.59;100.00
50282;BME280;36176;51.506;10.272;2023-10-13T01:00:59;99269.75;;;14.58;100.00
50282;BME280;36176;51.506;10.272;2023-10-13T01:03:49;99266.03;;;14.61;100.00
50282;BME280;36176;51.506;10.272;2023-10-13T01:06:36;99260.47;;;14.64;100.00
50282;BME280;36176;51.506;10.272;2023-10-13T01:09:24;99260.47;;;14.64;100.00
50282;BME280;36176;51.506;10.272;2023-10-13T01:12:11;99267.72;;;14.62;100.00
50282;BME280;36176;51.506;10.272;2023-10-13T01:14:58;99265.06;;;14.62;100.00
50282;BME280;36176;51.506;10.272;2023-10-13T01:17:46;99265.50;;;14.56;100.00
50282;BME280;36176;51.506;10.272;2023-10-13T01:20:34;99265.09;;;14.47;100.00
50282;BME280;36176;51.506;10.272;2023-10-13T01:23:21;99267.44;;;14.39;100.00
50282;BME280;36176;51.506;10.272;2023-10-13T01:26:08;99269.53;;;14.34;100.00
50282;BME280;36176;51.506;10.272;2023-10-13T01:28:58;99271.34;;;14.34;100.00
50282;BME280;36176;51.506;10.272;2023-10-13T01:31:46;99262.28;;;14.36;100.00
50282;BME280;36176;51.506;10.272;2023-10-13T01:34:34;99261.97;;;14.41;100.00
50282;BME280;36176;51.506;10.272;2023-10-13T01:37:21;99260.06;;;14.43;100.00
50282;BME280;36176;51.506;10.272;2023-10-13T01:40:09;99263.28;;;14.48;100.00
50282;BME280;36176;51.506;10.272;2023-10-13T01:42:56;99246.22;;;14.51;100.00
50282;BME280;36176;51.506;10.272;2023-10-13T01:45:44;99245.09;;;14.55;100.00
50282;BME280;36176;51.506;10.272;2023-10-13T01:48:31;99235.81;;;14.60;100.00
50282;BME280;36176;51.506;10.272;2023-10-13T01:51:19;99236.28;;;14.67;100.00
50282;BME280;36176;51.506;10.272;2023-10-13T01:54:06;99241.41;;;14.70;100.00
50282;BME280;36176;51.506;10.272;2023-10-13T01:56:55;99244.81;;;14.72;100.00
50282;BME280;36176;51.506;10.272;2023-10-13T01:59:22;99245.69;;;14.73;100.00
50282;BME280;36176;51.506;10.272;2023-10-13T02:01:49;99242.06;;;14.74;100.00
50282;BME280;36176;51.506;10.272;2023-10-13T02:04:17;99239.28;;;14.75;100.00
50282;BME280;36176;51.506;10.272;2023-10-13T02:06:44;99234.81;;;14.76;100.00
50282;BME280;36176;51.506;10.272;2023-10-13T02:09:11;99244.31;;;14.80;100.00
50282;BME280;36176;51.506;10.272;2023-10-13T02:11:39;99234.50;;;14.80;100.00
50282;BME280;36176;51.506;10.272;2023-10-13T02:14:07;99236.72;;;14.86;100.00
50282;BME280;36176;51.506;10.272;2023-10-13T02:16:35;99231.81;;;14.93;100.00
50282;BME280;36176;51.506;10.272;2023-10-13T02:19:02;99222.44;;;15.00;100.00
50282;BME280;36176;51.506;10.272;2023-10-13T02:21:31;99220.09;;;15.08;100.00
50282;BME280;36176;51.506;10.272;2023-10-13T02:23:58;99214.84;;;15.20;100.00
50282;BME280;36176;51.506;10.272;2023-10-13T02:26:26;99203.44;;;15.30;100.00
50282;BME280;36176;51.506;10.272;2023-10-13T02:28:54;99203.94;;;15.36;100.00
50282;BME280;36176;51.506;10.272;2023-10-13T02:31:20;99205.13;;;15.44;100.00
50282;BME280;36176;51.506;10.272;2023-10-13T02:33:48;99213.31;;;15.54;100.00
50282;BME280;36176;51.506;10.272;2023-10-13T02:36:15;99211.03;;;15.61;100.00
50282;BME280;36176;51.506;10.272;2023-10-13T02:38:42;99210.09;;;15.62;100.00
50282;BME280;36176;51.506;10.272;2023-10-13T02:41:14;99191.28;;;15.63;100.00
50282;BME280;36176;51.506;10.272;2023-10-13T02:43:42;99178.38;;;15.70;100.00
50282;BME280;36176;51.506;10.272;2023-10-13T02:46:09;99183.38;;;15.74;100.00
50282;BME280;36176;51.506;10.272;2023-10-13T02:48:36;99187.63;;;15.77;100.00
50282;BME280;36176;51.506;10.272;2023-10-13T02:51:03;99187.19;;;15.83;100.00
50282;BME280;36176;51.506;10.272;2023-10-13T02:53:30;99185.47;;;15.82;100.00
50282;BME280;36176;51.506;10.272;2023-10-13T02:55:57;99183.88;;;15.80;100.00
50282;BME280;36176;51.506;10.272;2023-10-13T02:58:24;99178.78;;;15.77;100.00
50282;BME280;36176;51.506;10.272;2023-10-13T03:00:51;99178.78;;;15.77;100.00
50282;BME280;36176;51.506;10.272;2023-10-13T03:03:19;99187.78;;;15.76;100.00
50282;BME280;36176;51.506;10.272;2023-10-13T03:05:46;99192.97;;;15.77;100.00
50282;BME280;36176;51.506;10.272;2023-10-13T03:08:13;99183.03;;;15.79;100.00
50282;BME280;36176;51.506;10.272;2023-10-13T03:10:40;99181.97;;;15.82;100.00
50282;BME280;36176;51.506;10.272;2023-10-13T03:13:08;99168.59;;;15.82;100.00
50282;BME280;36176;51.506;10.272;2023-10-13T03:15:35;99171.03;;;15.85;100.00
50282;BME280;36176;51.506;10.272;2023-10-13T03:18:02;99166.44;;;15.87;100.00
50282;BME280;36176;51.506;10.272;2023-10-13T03:20:30;99164.63;;;15.87;100.00
50282;BME280;36176;51.506;10.272;2023-10-13T03:22:58;99168.16;;;15.88;100.00
50282;BME280;36176;51.506;10.272;2023-10-13T03:25:26;99159.16;;;15.89;100.00
50282;BME280;36176;51.506;10.272;2023-10-13T03:27:53;99159.91;;;15.91;100.00
50282;BME280;36176;51.506;10.272;2023-10-13T03:30:20;99154.34;;;15.94;100.00
50282;BME280;36176;51.506;10.272;2023-10-13T03:32:48;99156.06;;;15.95;100.00
50282;BME280;36176;51.506;10.272;2023-10-13T03:35:15;99154.13;;;15.97;100.00
50282;BME280;36176;51.506;10.272;2023-10-13T03:37:42;99151.22;;;16.00;100.00
50282;BME280;36176;51.506;10.272;2023-10-13T03:40:11;99148.41;;;16.02;100.00
50282;BME280;36176;51.506;10.272;2023-10-13T03:42:38;99143.06;;;16.02;100.00
50282;BME280;36176;51.506;10.272;2023-10-13T03:45:05;99146.47;;;16.04;100.00
50282;BME280;36176;51.506;10.272;2023-10-13T03:47:33;99132.28;;;16.03;100.00
50282;BME280;36176;51.506;10.272;2023-10-13T03:50:00;99135.94;;;16.02;100.00
50282;BME280;36176;51.506;10.272;2023-10-13T03:52:27;99132.28;;;16.03;100.00
50282;BME280;36176;51.506;10.272;2023-10-13T03:54:54;99119.91;;;16.02;100.00
50282;BME280;36176;51.506;10.272;2023-10-13T03:57:21;99126.09;;;16.03;100.00
50282;BME280;36176;51.506;10.272;2023-10-13T03:59:48;99123.31;;;16.04;100.00
50282;BME280;36176;51.506;10.272;2023-10-13T04:02:15;99114.31;;;16.05;100.00
50282;BME280;36176;51.506;10.272;2023-10-13T04:04:43;99118.56;;;16.08;100.00
50282;BME280;36176;51.506;10.272;2023-10-13T04:07:10;99112.25;;;16.09;100.00
50282;BME280;36176;51.506;10.272;2023-10-13T04:09:38;99114.81;;;16.10;100.00
50282;BME280;36176;51.506;10.272;2023-10-13T04:12:07;99104.03;;;16.12;100.00
50282;BME280;36176;51.506;10.272;2023-10-13T04:14:36;99108.28;;;16.14;100.00
50282;BME280;36176;51.506;10.272;2023-10-13T04:17:03;99113.63;;;16.14;100.00
50282;BME280;36176;51.506;10.272;2023-10-13T04:19:30;99108.28;;;16.14;100.00
50282;BME280;36176;51.506;10.272;2023-10-13T04:21:57;99115.31;;;16.15;100.00
50282;BME280;36176;51.506;10.272;2023-10-13T04:24:26;99109.13;;;16.15;100.00
50282;BME280;36176;51.506;10.272;2023-10-13T04:26:53;99099.91;;;16.19;100.00
50282;BME280;36176;51.506;10.272;2023-10-13T04:29:20;99103.44;;;16.20;100.00
50282;BME280;36176;51.506;10.272;2023-10-13T04:31:48;99103.94;;;16.25;100.00
50282;BME280;36176;51.506;10.272;2023-10-13T04:34:15;99106.25;;;16.29;100.00
50282;BME280;36176;51.506;10.272;2023-10-13T04:36:42;99110.75;;;16.29;100.00
50282;BME280;36176;51.506;10.272;2023-10-13T04:39:11;99102.59;;;16.30;100.00
50282;BME280;36176;51.506;10.272;2023-10-13T04:41:39;99104.31;;;16.31;100.00
50282;BME280;36176;51.506;10.272;2023-10-13T04:44:13;99098.88;;;16.33;100.00
50282;BME280;36176;51.506;10.272;2023-10-13T04:46:40;99091.44;;;16.36;100.00
50282;BME280;36176;51.506;10.272;2023-10-13T04:49:07;99100.31;;;16.37;100.00
50282;BME280;36176;51.506;10.272;2023-10-13T04:51:34;99093.38;;;16.34;100.00
50282;BME280;36176;51.506;10.272;2023-10-13T04:54:01;99088.88;;;16.35;100.00
50282;BME280;36176;51.506;10.272;2023-10-13T04:56:29;99087.78;;;16.37;100.00
50282;BME280;36176;51.506;10.272;2023-10-13T04:58:56;99080.50;;;16.40;100.00
50282;BME280;36176;51.506;10.272;2023-10-13T05:01:23;99080.41;;;16.41;100.00
50282;BME280;36176;51.506;10.272;2023-10-13T05:03:50;99078.47;;;16.43;100.00
50282;BME280;36176;51.506;10.272;2023-10-13T05:06:18;99084.53;;;16.45;100.00
50282;BME280;36176;51.506;10.272;2023-10-13T05:08:45;99080.88;;;16.46;100.00
50282;BME280;36176;51.506;10.272;2023-10-13T05:11:12;99075.28;;;16.49;100.00
50282;BME280;36176;51.506;10.272;2023-10-13T05:13:39;99066.31;;;16.50;100.00
50282;BME280;36176;51.506;10.272;2023-10-13T05:16:06;99075.91;;;16.53;100.00
50282;BME280;36176;51.506;10.272;2023-10-13T05:18:33;99065.22;;;16.53;100.00
50282;BME280;36176;51.506;10.272;2023-10-13T05:21:01;99059.25;;;16.49;100.00
50282;BME280;36176;51.506;10.272;2023-10-13T05:23:28;99055.00;;;16.47;100.00
50282;BME280;36176;51.506;10.272;2023-10-13T05:25:55;99056.09;;;16.44;100.00
50282;BME280;36176;51.506;10.272;2023-10-13T05:28:22;99049.63;;;16.47;100.00
50282;BME280;36176;51.506;10.272;2023-10-13T05:31:02;99034.47;;;16.47;100.00
50282;BME280;36176;51.506;10.272;2023-10-13T05:33:29;99034.22;;;16.50;100.00
50282;BME280;36176;51.506;10.272;2023-10-13T05:35:56;99033.13;;;16.53;100.00
50282;BME280;36176;51.506;10.272;2023-10-13T05:38:23;99037.63;;;16.52;100.00
50282;BME280;36176;51.506;10.272;2023-10-13T05:40:58;99023.28;;;16.53;100.00
50282;BME280;36176;51.506;10.272;2023-10-13T05:43:26;99032.03;;;16.55;100.00
50282;BME280;36176;51.506;10.272;2023-10-13T05:46:00;99025.69;;;16.56;100.00
50282;BME280;36176;51.506;10.272;2023-10-13T05:48:31;99029.00;;;16.60;100.00
50282;BME280;36176;51.506;10.272;2023-10-13T05:51:12;99021.47;;;16.65;100.00
50282;BME280;36176;51.506;10.272;2023-10-13T05:53:39;99027.91;;;16.63;100.00
50282;BME280;36176;51.506;10.272;2023-10-13T05:56:06;99025.13;;;16.64;100.00
50282;BME280;36176;51.506;10.272;2023-10-13T05:58:33;99025.72;;;16.68;100.00
50282;BME280;36176;51.506;10.272;2023-10-13T06:01:01;99019.00;;;16.73;100.00
50282;BME280;36176;51.506;10.272;2023-10-13T06:03:28;99007.09;;;16.77;100.00
50282;BME280;36176;51.506;10.272;2023-10-13T06:05:55;99023.44;;;16.86;100.00
50282;BME280;36176;51.506;10.272;2023-10-13T06:08:22;99016.97;;;16.88;100.00
50282;BME280;36176;51.506;10.272;2023-10-13T06:10:49;99014.78;;;16.93;100.00
50282;BME280;36176;51.506;10.272;2023-10-13T06:13:16;99013.53;;;16.97;100.00
50282;BME280;36176;51.506;10.272;2023-10-13T06:15:43;99013.31;;;17.00;100.00
50282;BME280;36176;51.506;10.272;2023-10-13T06:18:10;99006.03;;;17.03;100.00
50282;BME280;36176;51.506;10.272;2023-10-13T06:20:42;99016.94;;;17.11;100.00
50282;BME280;36176;51.506;10.272;2023-10-13T06:23:09;99018.50;;;17.13;100.00
50282;BME280;36176;51.506;10.272;2023-10-13T06:25:36;99017.56;;;17.14;100.00
50282;BME280;36176;51.506;10.272;2023-10-13T06:28:03;99014.47;;;17.19;100.00
50282;BME280;36176;51.506;10.272;2023-10-13T06:30:30;99013.97;;;17.25;99.80
50282;BME280;36176;51.506;10.272;2023-10-13T06:32:57;99009.25;;;17.29;100.00
50282;BME280;36176;51.506;10.272;2023-10-13T06:35:24;99014.34;;;17.32;99.91
50282;BME280;36176;51.506;10.272;2023-10-13T06:37:51;99008.00;;;17.33;99.59
50282;BME280;36176;51.506;10.272;2023-10-13T06:40:19;99004.47;;;17.32;99.96
50282;BME280;36176;51.506;10.272;2023-10-13T06:42:46;99000.09;;;17.31;100.00
50282;BME280;36176;51.506;10.272;2023-10-13T06:45:13;98994.59;;;17.33;100.00
50282;BME280;36176;51.506;10.272;2023-10-13T06:47:40;99005.94;;;17.36;100.00
50282;BME280;36176;51.506;10.272;2023-10-13T06:50:14;99001.16;;;17.40;100.00
50282;BME280;36176;51.506;10.272;2023-10-13T06:52:44;98999.94;;;17.44;100.00
50282;BME280;36176;51.506;10.272;2023-10-13T06:55:11;99004.91;;;17.49;100.00
50282;BME280;36176;51.506;10.272;2023-10-13T06:57:38;99009.63;;;17.56;99.48
50282;BME280;36176;51.506;10.272;2023-10-13T07:00:06;99001.09;;;17.62;100.00
50282;BME280;36176;51.506;10.272;2023-10-13T07:02:34;98996.75;;;17.71;99.63
50282;BME280;36176;51.506;10.272;2023-10-13T07:05:01;98993.56;;;17.77;99.31
50282;BME280;36176;51.506;10.272;2023-10-13T07:07:28;98992.38;;;17.81;98.87
50282;BME280;36176;51.506;10.272;2023-10-13T07:09:55;98995.38;;;17.88;99.04
50282;BME280;36176;51.506;10.272;2023-10-13T07:12:22;98991.19;;;17.95;98.85
50282;BME280;36176;51.506;10.272;2023-10-13T07:14:49;98997.88;;;18.01;98.49
50282;BME280;36176;51.506;10.272;2023-10-13T07:17:17;98997.72;;;18.02;97.99
50282;BME280;36176;51.506;10.272;2023-10-13T07:19:45;98992.81;;;18.07;97.87
50282;BME280;36176;51.506;10.272;2023-10-13T07:22:12;98995.81;;;18.14;97.87
50282;BME280;36176;51.506;10.272;2023-10-13T07:24:39;98997.84;;;18.22;97.93
50282;BME280;36176;51.506;10.272;2023-10-13T07:27:06;99007.75;;;18.31;97.71
50282;BME280;36176;51.506;10.272;2023-10-13T07:29:33;99014.25;;;18.28;96.99
50282;BME280;36176;51.506;10.272;2023-10-13T07:32:02;99000.44;;;18.33;97.26
50282;BME280;36176;51.506;10.272;2023-10-13T07:34:29;98993.13;;;18.35;97.29
50282;BME280;36176;51.506;10.272;2023-10-13T07:36:57;98995.91;;;18.34;96.85
50282;BME280;36176;51.506;10.272;2023-10-13T07:39:24;98995.06;;;18.33;97.21
50282;BME280;36176;51.506;10.272;2023-10-13T07:41:52;98997.38;;;18.38;97.95
50282;BME280;36176;51.506;10.272;2023-10-13T07:44:21;98992.00;;;18.38;97.49
50282;BME280;36176;51.506;10.272;2023-10-13T07:46:48;98992.00;;;18.38;98.30
50282;BME280;36176;51.506;10.272;2023-10-13T07:49:15;98988.31;;;18.39;98.54
50282;BME280;36176;51.506;10.272;2023-10-13T07:51:42;98986.34;;;18.41;99.21
50282;BME280;36176;51.506;10.272;2023-10-13T07:54:18;98992.16;;;18.46;99.54
50282;BME280;36176;51.506;10.272;2023-10-13T07:56:45;98989.47;;;18.46;99.29
50282;BME280;36176;51.506;10.272;2023-10-13T07:59:12;98984.84;;;18.48;99.42
50282;BME280;36176;51.506;10.272;2023-10-13T08:01:40;98988.63;;;18.45;99.56
50282;BME280;36176;51.506;10.272;2023-10-13T08:04:07;98982.16;;;18.48;99.80
50282;BME280;36176;51.506;10.272;2023-10-13T08:06:35;98986.34;;;18.41;98.59
50282;BME280;36176;51.506;10.272;2023-10-13T08:09:03;98983.84;;;18.39;99.62
50282;BME280;36176;51.506;10.272;2023-10-13T08:11:30;98988.47;;;18.37;99.68
50282;BME280;36176;51.506;10.272;2023-10-13T08:14:03;98989.19;;;18.39;100.00
50282;BME280;36176;51.506;10.272;2023-10-13T08:16:48;98992.00;;;18.38;100.00
50282;BME280;36176;51.506;10.272;2023-10-13T08:19:17;98986.06;;;18.34;100.00
50282;BME280;36176;51.506;10.272;2023-10-13T08:21:46;98984.22;;;18.35;100.00
50282;BME280;36176;51.506;10.272;2023-10-13T08:24:13;98974.47;;;18.34;100.00
50282;BME280;36176;51.506;10.272;2023-10-13T08:26:41;98975.59;;;18.31;100.00
50282;BME280;36176;51.506;10.272;2023-10-13T08:29:08;98969.97;;;18.34;100.00
50282;BME280;36176;51.506;10.272;2023-10-13T08:31:35;98972.66;;;18.34;100.00
50282;BME280;36176;51.506;10.272;2023-10-13T08:34:02;98967.03;;;18.37;100.00
50282;BME280;36176;51.506;10.272;2023-10-13T08:36:30;98961.78;;;18.36;100.00
50282;BME280;36176;51.506;10.272;2023-10-13T08:38:57;98961.94;;;18.34;100.00
50282;BME280;36176;51.506;10.272;2023-10-13T08:41:24;98967.16;;;18.36;100.00
50282;BME280;36176;51.506;10.272;2023-10-13T08:43:52;98954.84;;;18.33;100.00
50282;BME280;36176;51.506;10.272;2023-10-13T08:46:20;98957.25;;;18.36;100.00
50282;BME280;36176;51.506;10.272;2023-10-13T08:48:48;98954.31;;;18.39;99.74
50282;BME280;36176;51.506;10.272;2023-10-13T08:51:15;98946.28;;;18.39;99.69
50282;BME280;36176;51.506;10.272;2023-10-13T08:53:43;98944.16;;;18.43;99.87
50282;BME280;36176;51.506;10.272;2023-10-13T08:56:12;98949.53;;;18.43;99.56
50282;BME280;36176;51.506;10.272;2023-10-13T08:58:43;98940.50;;;18.44;99.34
50282;BME280;36176;51.506;10.272;2023-10-13T09:01:10;98933.44;;;18.43;100.00
50282;BME280;36176;51.506;10.272;2023-10-13T09:03:39;98926.50;;;18.40;100.00
50282;BME280;36176;51.506;10.272;2023-10-13T09:06:12;98872.84;;;18.31;100.00
50282;BME280;36176;51.506;10.272;2023-10-13T09:08:39;98884.81;;;18.26;100.00
50282;BME280;36176;51.506;10.272;2023-10-13T09:11:06;98899.09;;;18.27;100.00
50282;BME280;36176;51.506;10.272;2023-10-13T09:13:35;98905.31;;;18.27;100.00
50282;BME280;36176;51.506;10.272;2023-10-13T09:16:09;98893.56;;;18.28;100.00
50282;BME280;36176;51.506;10.272;2023-10-13T09:18:36;98896.69;;;18.34;100.00
50282;BME280;36176;51.506;10.272;2023-10-13T09:21:03;98888.97;;;18.40;100.00
50282;BME280;36176;51.506;10.272;2023-10-13T09:23:30;98903.66;;;18.46;100.00
50282;BME280;36176;51.506;10.272;2023-10-13T09:26:05;98911.59;;;18.57;100.00
50282;BME280;36176;51.506;10.272;2023-10-13T09:28:32;98911.78;;;18.65;100.00
50282;BME280;36176;51.506;10.272;2023-10-13T09:30:59;98910.25;;;18.73;99.38
50282;BME280;36176;51.506;10.272;2023-10-13T09:33:28;98909.41;;;18.82;99.42
50282;BME280;36176;51.506;10.272;2023-10-13T09:35:56;98900.81;;;18.88;98.63
50282;BME280;36176;51.506;10.272;2023-10-13T09:38:23;98897.31;;;18.97;98.21
50282;BME280;36176;51.506;10.272;2023-10-13T09:40:51;98906.50;;;19.04;98.33
50282;BME280;36176;51.506;10.272;2023-10-13T09:43:19;98906.81;;;19.11;98.21
50282;BME280;36176;51.506;10.272;2023-10-13T09:45:47;98901.56;;;19.09;96.73
50282;BME280;36176;51.506;10.272;2023-10-13T09:48:15;98900.44;;;19.12;96.73
50282;BME280;36176;51.506;10.272;2023-10-13T09:50:45;98897.03;;;19.20;96.06
50282;BME280;36176;51.506;10.272;2023-10-13T09:53:14;98900.13;;;19.25;95.39
50282;BME280;36176;51.506;10.272;2023-10-13T09:55:58;98897.31;;;19.36;95.99
50282;BME280;36176;51.506;10.272;2023-10-13T09:58:28;98886.44;;;19.47;95.00
50282;BME280;36176;51.506;10.272;2023-10-13T10:01:06;98880.75;;;19.50;94.88
50282;BME280;36176;51.506;10.272;2023-10-13T10:03:44;98878.34;;;19.57;94.33
50282;BME280;36176;51.506;10.272;2023-10-13T10:06:21;98879.34;;;19.66;93.79
50282;BME280;36176;51.506;10.272;2023-10-13T10:08:48;98874.81;;;19.76;93.23
50282;BME280;36176;51.506;10.272;2023-10-13T10:11:52;98874.06;;;19.84;91.51
50282;BME280;36176;51.506;10.272;2023-10-13T10:17:26;98863.31;;;19.84;91.12
50282;BME280;36176;51.506;10.272;2023-10-13T10:19:53;98860.19;;;19.88;91.41
50282;BME280;36176;51.506;10.272;2023-10-13T10:22:28;98862.72;;;20.00;90.15
50282;BME280;36176;51.506;10.272;2023-10-13T10:25:01;98860.22;;;20.16;89.92
50282;BME280;36176;51.506;10.272;2023-10-13T10:27:30;98863.44;;;20.29;87.07
50282;BME280;36176;51.506;10.272;2023-10-13T10:29:58;98859.44;;;20.33;86.99
50282;BME280;36176;51.506;10.272;2023-10-13T10:32:38;98865.31;;;20.47;87.31
50282;BME280;36176;51.506;10.272;2023-10-13T10:35:06;98871.56;;;20.47;84.64
50282;BME280;36176;51.506;10.272;2023-10-13T10:37:36;98863.00;;;20.52;85.45
50282;BME280;36176;51.506;10.272;2023-10-13T10:40:09;98859.34;;;20.53;84.16
50282;BME280;36176;51.506;10.272;2023-10-13T10:42:36;98851.69;;;20.58;84.14
50282;BME280;36176;51.506;10.272;2023-10-13T10:45:09;98839.72;;;20.70;83.29
50282;BME280;36176;51.506;10.272;2023-10-13T10:47:36;98843.88;;;20.82;82.32
50282;BME280;36176;51.506;10.272;2023-10-13T10:50:04;98834.41;;;20.96;82.28
50282;BME280;36176;51.506;10.272;2023-10-13T10:52:32;98825.69;;;21.20;81.34
50282;BME280;36176;51.506;10.272;2023-10-13T10:55:00;98825.56;;;21.66;79.25
50282;BME280;36176;51.506;10.272;2023-10-13T10:57:27;98822.84;;;22.26;79.11
50282;BME280;36176;51.506;10.272;2023-10-13T10:59:57;98810.66;;;22.65;77.31
50282;BME280;36176;51.506;10.272;2023-10-13T11:02:30;98801.03;;;22.54;72.90
50282;BME280;36176;51.506;10.272;2023-10-13T11:04:57;98822.19;;;22.24;75.03
50282;BME280;36176;51.506;10.272;2023-10-13T11:07:25;98809.06;;;22.38;75.76
50282;BME280;36176;51.506;10.272;2023-10-13T11:09:52;98800.31;;;22.44;74.12
50282;BME280;36176;51.506;10.272;2023-10-13T11:12:20;98789.38;;;22.54;74.01
50282;BME280;36176;51.506;10.272;2023-10-13T11:14:47;98789.63;;;22.26;72.68
50282;BME280;36176;51.506;10.272;2023-10-13T11:17:21;98783.63;;;22.06;73.75
50282;BME280;36176;51.506;10.272;2023-10-13T11:19:49;98780.88;;;21.90;74.30
50282;BME280;36176;51.506;10.272;2023-10-13T11:22:18;98788.75;;;21.83;74.86
50282;BME280;36176;51.506;10.272;2023-10-13T11:24:48;98777.09;;;21.74;75.53
50282;BME280;36176;51.506;10.272;2023-10-13T11:27:15;98769.63;;;21.68;75.74
50282;BME280;36176;51.506;10.272;2023-10-13T11:29:43;98765.78;;;21.71;76.26
50282;BME280;36176;51.506;10.272;2023-10-13T11:32:10;98764.56;;;21.99;75.41
50282;BME280;36176;51.506;10.272;2023-10-13T11:34:37;98757.69;;;22.56;76.70
50282;BME280;36176;51.506;10.272;2023-10-13T11:37:05;98748.75;;;22.80;72.11
50282;BME280;36176;51.506;10.272;2023-10-13T11:39:32;98749.06;;;22.77;70.80
50282;BME280;36176;51.506;10.272;2023-10-13T11:41:59;98749.59;;;22.80;71.46
50282;BME280;36176;51.506;10.272;2023-10-13T11:44:26;98742.88;;;23.09;72.85
50282;BME280;36176;51.506;10.272;2023-10-13T11:46:53;98741.47;;;23.29;70.75
50282;BME280;36176;51.506;10.272;2023-10-13T11:49:22;98749.59;;;23.29;69.09
50282;BME280;36176;51.506;10.272;2023-10-13T11:51:50;98743.00;;;23.32;69.07
50282;BME280;36176;51.506;10.272;2023-10-13T11:54:19;98756.00;;;23.36;68.05
50282;BME280;36176;51.506;10.272;2023-10-13T11:56:48;98741.97;;;23.41;69.68
50282;BME280;36176;51.506;10.272;2023-10-13T11:59:15;98750.59;;;23.45;67.92
50282;BME280;36176;51.506;10.272;2023-10-13T12:01:47;98750.72;;;23.60;67.02
50282;BME280;36176;51.506;10.272;2023-10-13T12:04:15;98736.03;;;23.54;66.26
50282;BME280;36176;51.506;10.272;2023-10-13T12:06:45;98729.91;;;23.68;67.86
50282;BME280;36176;51.506;10.272;2023-10-13T12:09:12;98730.88;;;23.84;65.61
50282;BME280;36176;51.506;10.272;2023-10-13T12:11:40;98731.69;;;23.92;65.55
50282;BME280;36176;51.506;10.272;2023-10-13T12:14:11;98733.34;;;24.02;66.51
50282;BME280;36176;51.506;10.272;2023-10-13T12:16:39;98727.44;;;24.29;67.05
50282;BME280;36176;51.506;10.272;2023-10-13T12:19:06;98726.59;;;24.60;64.04
50282;BME280;36176;51.506;10.272;2023-10-13T12:21:33;98726.28;;;25.01;62.53
50282;BME280;36176;51.506;10.272;2023-10-13T12:24:00;98722.50;;;25.25;61.40
50282;BME280;36176;51.506;10.272;2023-10-13T12:26:28;98706.13;;;25.18;60.88
50282;BME280;36176;51.506;10.272;2023-10-13T12:28:55;98700.88;;;25.17;61.47
50282;BME280;36176;51.506;10.272;2023-10-13T12:31:22;98689.75;;;25.12;60.06
50282;BME280;36176;51.506;10.272;2023-10-13T12:33:49;98691.19;;;25.22;60.67
50282;BME280;36176;51.506;10.272;2023-10-13T12:36:16;98701.22;;;25.14;59.66
50282;BME280;36176;51.506;10.272;2023-10-13T12:38:44;98703.72;;;24.86;60.63
50282;BME280;36176;51.506;10.272;2023-10-13T12:41:11;98696.22;;;24.50;62.17
50282;BME280;36176;51.506;10.272;2023-10-13T12:43:58;98687.22;;;24.26;63.76
50282;BME280;36176;51.506;10.272;2023-10-13T12:46:25;98686.81;;;24.06;62.14
50282;BME280;36176;51.506;10.272;2023-10-13T12:48:53;98688.91;;;23.96;63.08
50282;BME280;36176;51.506;10.272;2023-10-13T12:51:20;98685.19;;;23.97;63.23
50282;BME280;36176;51.506;10.272;2023-10-13T12:53:47;98673.25;;;24.14;63.30
50282;BME280;36176;51.506;10.272;2023-10-13T12:56:15;98665.56;;;24.26;63.37
50282;BME280;36176;51.506;10.272;2023-10-13T12:58:43;98675.78;;;24.39;59.71
50282;BME280;36176;51.506;10.272;2023-10-13T13:01:11;98667.28;;;24.42;59.51
50282;BME280;36176;51.506;10.272;2023-10-13T13:03:38;98669.75;;;24.29;60.29
50282;BME280;36176;51.506;10.272;2023-10-13T13:06:05;98669.56;;;24.07;60.67